createdAt,value
2018-05-04T00:00:06.567Z,18.86
2018-05-04T00:00:39.218Z,18.81
2018-05-04T00:01:11.245Z,18.74
2018-05-04T00:01:43.296Z,18.71
2018-05-04T00:02:15.296Z,18.75
2018-05-04T00:02:47.326Z,18.75
2018-05-04T00:03:19.379Z,18.63
2018-05-04T00:03:51.394Z,18.75
2018-05-04T00:04:23.380Z,18.66
2018-05-04T00:04:55.407Z,18.71
2018-05-04T00:05:27.434Z,18.68
2018-05-04T00:05:59.469Z,18.68
2018-05-04T00:06:31.497Z,18.65
2018-05-04T00:07:03.551Z,18.71
2018-05-04T00:07:35.609Z,18.71
2018-05-04T00:08:07.651Z,18.68
2018-05-04T00:08:39.683Z,18.72
2018-05-04T00:09:11.672Z,18.71
2018-05-04T00:09:43.665Z,18.71
2018-05-04T00:10:15.697Z,18.66
2018-05-04T00:10:47.726Z,18.68
2018-05-04T00:11:19.765Z,18.63
2018-05-04T00:11:51.882Z,18.63
2018-05-04T00:12:23.929Z,18.61
2018-05-04T00:12:55.928Z,18.65
2018-05-04T00:13:27.957Z,18.61
2018-05-04T00:14:00.218Z,18.61
2018-05-04T00:14:32.192Z,18.66
2018-05-04T00:15:04.224Z,18.61
2018-05-04T00:15:36.229Z,18.66
2018-05-04T00:16:08.284Z,18.61
2018-05-04T00:16:40.457Z,18.63
2018-05-04T00:17:12.533Z,18.59
2018-05-04T00:17:44.550Z,18.61
2018-05-04T00:18:16.627Z,18.6
2018-05-04T00:18:48.716Z,18.61
2018-05-04T00:19:20.815Z,18.54
2018-05-04T00:19:53.370Z,18.59
2018-05-04T00:20:25.404Z,18.6
2018-05-04T00:20:57.445Z,18.51
2018-05-04T00:21:29.467Z,18.53
2018-05-04T00:22:01.488Z,18.56
2018-05-04T00:22:34.158Z,18.53
2018-05-04T00:23:06.147Z,18.54
2018-05-04T00:23:38.193Z,18.54
2018-05-04T00:24:10.223Z,18.5
2018-05-04T00:24:42.287Z,18.54
2018-05-04T00:25:14.284Z,18.53
2018-05-04T00:25:46.319Z,18.5
2018-05-04T00:26:18.341Z,18.51
2018-05-04T00:26:50.412Z,18.47
2018-05-04T00:27:22.406Z,18.44
2018-05-04T00:27:54.455Z,18.5
2018-05-04T00:28:26.454Z,18.53
2018-05-04T00:28:58.498Z,18.51
2018-05-04T00:29:30.515Z,18.45
2018-05-04T00:30:02.567Z,18.53
2018-05-04T00:30:34.620Z,18.44
2018-05-04T00:31:06.689Z,18.47
2018-05-04T00:31:38.726Z,18.44
2018-05-04T00:32:10.853Z,18.41
2018-05-04T00:32:42.858Z,18.44
2018-05-04T00:33:14.898Z,18.41
2018-05-04T00:33:46.914Z,18.39
2018-05-04T00:34:19.046Z,18.44
2018-05-04T00:34:51.118Z,18.47
2018-05-04T00:35:23.137Z,18.38
2018-05-04T00:35:55.180Z,18.36
2018-05-04T00:36:27.220Z,18.45
2018-05-04T00:36:59.275Z,18.41
2018-05-04T00:37:31.309Z,18.36
2018-05-04T00:38:03.323Z,18.39
2018-05-04T00:38:35.348Z,18.41
2018-05-04T00:39:07.447Z,18.36
2018-05-04T00:39:39.494Z,18.35
2018-05-04T00:40:11.534Z,18.39
2018-05-04T00:40:43.579Z,18.35
2018-05-04T00:41:15.635Z,18.45
2018-05-04T00:41:47.828Z,18.39
2018-05-04T00:42:19.833Z,18.41
2018-05-04T00:42:51.842Z,18.34
2018-05-04T00:43:23.897Z,18.35
2018-05-04T00:43:55.989Z,18.39
2018-05-04T00:44:28.004Z,18.24
2018-05-04T00:45:00.046Z,18.35
2018-05-04T00:45:32.181Z,18.34
2018-05-04T00:46:04.279Z,18.38
2018-05-04T00:46:36.298Z,18.29
2018-05-04T00:47:08.320Z,18.31
2018-05-04T00:47:40.354Z,18.35
2018-05-04T00:48:12.412Z,18.35
2018-05-04T00:48:44.416Z,18.34
2018-05-04T00:49:16.469Z,18.41
2018-05-04T00:49:48.494Z,18.32
2018-05-04T00:50:20.530Z,18.34
2018-05-04T00:50:52.603Z,18.36
2018-05-04T00:51:24.622Z,18.42
2018-05-04T00:51:56.671Z,18.38
2018-05-04T00:52:28.713Z,18.34
2018-05-04T00:53:00.725Z,18.47
2018-05-04T00:53:32.879Z,18.21
2018-05-04T00:54:04.917Z,18.31
2018-05-04T00:54:36.961Z,18.35
2018-05-04T00:55:09.022Z,18.38
2018-05-04T00:55:41.063Z,18.35
2018-05-04T00:56:13.094Z,18.29
2018-05-04T00:56:45.105Z,18.35
2018-05-04T00:57:17.177Z,18.29
2018-05-04T00:57:49.192Z,18.31
2018-05-04T00:58:21.246Z,18.29
2018-05-04T00:58:53.242Z,18.23
2018-05-04T00:59:25.245Z,18.32
2018-05-04T00:59:57.276Z,18.31
2018-05-04T01:00:29.372Z,18.32
2018-05-04T01:01:01.424Z,18.19
2018-05-04T01:01:33.426Z,18.14
2018-05-04T01:02:05.431Z,18.35
2018-05-04T01:02:37.467Z,18.27
2018-05-04T01:03:09.458Z,18.24
2018-05-04T01:03:41.553Z,18.2
2018-05-04T01:04:13.610Z,18.14
2018-05-04T01:04:45.598Z,18.17
2018-05-04T01:05:17.617Z,18.19
2018-05-04T01:05:49.650Z,18.14
2018-05-04T01:06:21.693Z,18.13
2018-05-04T01:06:53.715Z,18.19
2018-05-04T01:07:25.832Z,18.19
2018-05-04T01:07:57.843Z,18.16
2018-05-04T01:08:29.899Z,18.17
2018-05-04T01:09:01.888Z,18.2
2018-05-04T01:09:33.911Z,18.19
2018-05-04T01:10:05.956Z,18.16
2018-05-04T01:10:37.987Z,18.23
2018-05-04T01:11:10.019Z,18.16
2018-05-04T01:11:42.063Z,18.14
2018-05-04T01:12:14.093Z,18.23
2018-05-04T01:12:46.128Z,18.16
2018-05-04T01:13:18.143Z,18.17
2018-05-04T01:13:50.175Z,18.19
2018-05-04T01:14:22.185Z,18.02
2018-05-04T01:14:54.217Z,18.17
2018-05-04T01:15:26.217Z,18.21
2018-05-04T01:15:58.337Z,18.19
2018-05-04T01:16:30.370Z,18.17
2018-05-04T01:17:02.427Z,18.11
2018-05-04T01:17:34.486Z,18.13
2018-05-04T01:18:06.528Z,18.06
2018-05-04T01:18:38.677Z,18.05
2018-05-04T01:19:10.687Z,18.17
2018-05-04T01:19:42.700Z,18.05
2018-05-04T01:20:14.781Z,18.06
2018-05-04T01:20:46.809Z,18.06
2018-05-04T01:21:18.851Z,18.1
2018-05-04T01:21:50.889Z,18.03
2018-05-04T01:22:22.916Z,18.05
2018-05-04T01:22:54.915Z,18.11
2018-05-04T01:23:26.951Z,18.13
2018-05-04T01:23:58.980Z,18.11
2018-05-04T01:24:30.955Z,18.08
2018-05-04T01:25:02.987Z,18.03
2018-05-04T01:25:35.047Z,18.16
2018-05-04T01:26:07.079Z,18.01
2018-05-04T01:26:39.095Z,18.05
2018-05-04T01:27:11.096Z,18.11
2018-05-04T01:27:43.119Z,18.02
2018-05-04T01:28:15.132Z,18.05
2018-05-04T01:28:47.140Z,18.01
2018-05-04T01:29:19.319Z,18.02
2018-05-04T01:29:51.418Z,18.05
2018-05-04T01:30:23.609Z,17.99
2018-05-04T01:30:55.629Z,17.98
2018-05-04T01:31:27.640Z,18.03
2018-05-04T01:31:59.676Z,17.99
2018-05-04T01:32:31.716Z,17.96
2018-05-04T01:33:03.748Z,17.98
2018-05-04T01:33:35.834Z,18.01
2018-05-04T01:34:07.906Z,17.99
2018-05-04T01:34:39.926Z,17.94
2018-05-04T01:35:11.946Z,17.95
2018-05-04T01:35:43.934Z,17.92
2018-05-04T01:36:15.948Z,17.87
2018-05-04T01:36:47.989Z,17.99
2018-05-04T01:37:20.022Z,17.95
2018-05-04T01:37:52.968Z,18.01
2018-05-04T01:38:24.998Z,17.96
2018-05-04T01:38:57.015Z,17.9
2018-05-04T01:39:29.042Z,17.98
2018-05-04T01:40:01.089Z,17.96
2018-05-04T01:40:33.120Z,17.95
2018-05-04T01:41:05.159Z,17.94
2018-05-04T01:41:37.188Z,17.92
2018-05-04T01:42:09.213Z,17.96
2018-05-04T01:42:41.254Z,17.96
2018-05-04T01:43:13.260Z,17.94
2018-05-04T01:43:45.303Z,17.95
2018-05-04T01:44:17.337Z,17.92
2018-05-04T01:44:50.299Z,17.92
2018-05-04T01:45:22.336Z,17.96
2018-05-04T01:45:54.363Z,17.87
2018-05-04T01:46:26.405Z,17.86
2018-05-04T01:46:58.419Z,17.88
2018-05-04T01:47:30.482Z,17.87
2018-05-04T01:48:02.574Z,17.92
2018-05-04T01:48:34.547Z,17.81
2018-05-04T01:49:06.530Z,17.92
2018-05-04T01:49:38.607Z,17.87
2018-05-04T01:50:10.661Z,17.86
2018-05-04T01:50:42.711Z,17.9
2018-05-04T01:51:14.741Z,17.88
2018-05-04T01:51:46.770Z,17.87
2018-05-04T01:52:18.774Z,17.87
2018-05-04T01:52:50.790Z,17.84
2018-05-04T01:53:22.811Z,17.84
2018-05-04T01:53:54.828Z,17.87
2018-05-04T01:54:26.868Z,17.84
2018-05-04T01:54:58.881Z,17.84
2018-05-04T01:55:30.911Z,17.87
2018-05-04T01:56:02.938Z,17.83
2018-05-04T01:56:34.965Z,17.84
2018-05-04T01:57:06.974Z,17.86
2018-05-04T01:57:38.993Z,17.79
2018-05-04T01:58:10.986Z,17.87
2018-05-04T01:58:43.034Z,17.86
2018-05-04T01:59:15.067Z,17.86
2018-05-04T01:59:47.127Z,17.74
2018-05-04T02:00:19.145Z,17.8
2018-05-04T02:00:51.166Z,17.87
2018-05-04T02:01:23.169Z,17.77
2018-05-04T02:01:55.218Z,17.8
2018-05-04T02:02:27.225Z,17.81
2018-05-04T02:02:59.236Z,17.73
2018-05-04T02:03:31.286Z,17.8
2018-05-04T02:04:03.477Z,17.73
2018-05-04T02:04:35.625Z,17.76
2018-05-04T02:05:07.806Z,17.77
2018-05-04T02:05:39.825Z,17.73
2018-05-04T02:06:11.848Z,17.77
2018-05-04T02:06:43.860Z,17.8
2018-05-04T02:07:16.023Z,17.73
2018-05-04T02:07:48.158Z,17.76
2018-05-04T02:08:20.291Z,17.74
2018-05-04T02:08:52.332Z,17.73
2018-05-04T02:09:24.407Z,17.76
2018-05-04T02:09:56.394Z,17.81
2018-05-04T02:10:28.467Z,17.63
2018-05-04T02:11:00.494Z,17.68
2018-05-04T02:11:32.550Z,17.73
2018-05-04T02:12:04.547Z,17.66
2018-05-04T02:12:36.552Z,17.68
2018-05-04T02:13:08.532Z,17.66
2018-05-04T02:13:40.575Z,17.71
2018-05-04T02:14:12.596Z,17.65
2018-05-04T02:14:44.624Z,17.62
2018-05-04T02:15:16.629Z,17.63
2018-05-04T02:15:48.670Z,17.71
2018-05-04T02:16:20.685Z,17.71
2018-05-04T02:16:52.735Z,17.65
2018-05-04T02:17:24.775Z,17.62
2018-05-04T02:17:56.809Z,17.57
2018-05-04T02:18:28.811Z,17.71
2018-05-04T02:19:00.846Z,17.68
2018-05-04T02:19:32.838Z,17.62
2018-05-04T02:20:04.921Z,17.62
2018-05-04T02:20:36.950Z,17.62
2018-05-04T02:21:08.974Z,17.6
2018-05-04T02:21:41.021Z,17.57
2018-05-04T02:22:13.073Z,17.77
2018-05-04T02:22:45.115Z,17.54
2018-05-04T02:23:17.291Z,17.71
2018-05-04T02:23:49.319Z,17.65
2018-05-04T02:24:21.318Z,17.58
2018-05-04T02:24:53.360Z,17.69
2018-05-04T02:25:25.409Z,17.71
2018-05-04T02:25:57.467Z,17.73
2018-05-04T02:26:29.453Z,17.73
2018-05-04T02:27:01.572Z,17.71
2018-05-04T02:27:33.651Z,17.68
2018-05-04T02:28:05.652Z,17.54
2018-05-04T02:28:37.675Z,17.68
2018-05-04T02:29:09.802Z,17.57
2018-05-04T02:29:42.592Z,17.54
2018-05-04T02:30:14.622Z,17.68
2018-05-04T02:30:46.640Z,17.65
2018-05-04T02:31:18.683Z,17.62
2018-05-04T02:31:50.698Z,17.63
2018-05-04T02:32:22.668Z,17.66
2018-05-04T02:32:54.687Z,17.55
2018-05-04T02:33:26.752Z,17.49
2018-05-04T02:33:58.801Z,17.62
2018-05-04T02:34:30.814Z,17.58
2018-05-04T02:35:02.844Z,17.52
2018-05-04T02:35:34.857Z,17.46
2018-05-04T02:36:06.894Z,17.6
2018-05-04T02:36:38.916Z,17.62
2018-05-04T02:37:10.944Z,17.57
2018-05-04T02:37:43.077Z,17.6
2018-05-04T02:38:15.106Z,17.58
2018-05-04T02:38:47.196Z,17.55
2018-05-04T02:39:19.223Z,17.46
2018-05-04T02:39:51.279Z,17.63
2018-05-04T02:40:23.322Z,17.58
2018-05-04T02:40:55.369Z,17.54
2018-05-04T02:41:27.405Z,17.58
2018-05-04T02:41:59.423Z,17.6
2018-05-04T02:42:31.427Z,17.55
2018-05-04T02:43:03.480Z,17.57
2018-05-04T02:43:35.513Z,17.52
2018-05-04T02:44:07.599Z,17.47
2018-05-04T02:44:39.655Z,17.5
2018-05-04T02:45:11.697Z,17.52
2018-05-04T02:45:43.755Z,17.55
2018-05-04T02:46:15.769Z,17.54
2018-05-04T02:46:47.888Z,17.47
2018-05-04T02:47:19.916Z,17.52
2018-05-04T02:47:51.920Z,17.43
2018-05-04T02:48:23.946Z,17.55
2018-05-04T02:48:55.937Z,17.52
2018-05-04T02:49:27.969Z,17.42
2018-05-04T02:50:00.053Z,17.4
2018-05-04T02:50:32.086Z,17.4
2018-05-04T02:51:04.129Z,17.52
2018-05-04T02:51:36.178Z,17.43
2018-05-04T02:52:09.017Z,17.42
2018-05-04T02:52:41.068Z,17.45
2018-05-04T02:53:13.096Z,17.4
2018-05-04T02:53:45.111Z,17.43
2018-05-04T02:54:17.147Z,17.47
2018-05-04T02:54:49.270Z,17.38
2018-05-04T02:55:21.397Z,17.43
2018-05-04T02:55:57.388Z,17.39
2018-05-04T02:56:29.489Z,17.45
2018-05-04T02:57:01.549Z,17.45
2018-05-04T02:57:33.602Z,17.39
2018-05-04T02:58:05.621Z,17.45
2018-05-04T02:58:37.619Z,17.45
2018-05-04T02:59:09.786Z,17.45
2018-05-04T02:59:41.940Z,17.47
2018-05-04T03:00:14.007Z,17.43
2018-05-04T03:00:46.046Z,17.32
2018-05-04T03:01:18.063Z,17.45
2018-05-04T03:01:50.106Z,17.45
2018-05-04T03:02:22.232Z,17.43
2018-05-04T03:02:54.279Z,17.3
2018-05-04T03:03:26.292Z,17.49
2018-05-04T03:03:58.347Z,17.4
2018-05-04T03:04:30.449Z,17.38
2018-05-04T03:05:02.490Z,17.38
2018-05-04T03:05:34.504Z,17.32
2018-05-04T03:06:06.513Z,17.45
2018-05-04T03:06:38.564Z,17.35
2018-05-04T03:07:10.619Z,17.32
2018-05-04T03:07:42.647Z,17.38
2018-05-04T03:08:14.695Z,17.42
2018-05-04T03:08:46.682Z,17.31
2018-05-04T03:09:18.710Z,17.36
2018-05-04T03:09:50.760Z,17.35
2018-05-04T03:10:22.922Z,17.28
2018-05-04T03:10:54.968Z,17.42
2018-05-04T03:11:27.052Z,17.4
2018-05-04T03:11:59.099Z,17.28
2018-05-04T03:12:31.117Z,17.32
2018-05-04T03:13:03.153Z,17.4
2018-05-04T03:13:35.160Z,17.27
2018-05-04T03:14:07.189Z,17.3
2018-05-04T03:14:39.237Z,17.32
2018-05-04T03:15:11.332Z,17.32
2018-05-04T03:15:43.363Z,17.36
2018-05-04T03:16:15.425Z,17.28
2018-05-04T03:16:47.436Z,17.28
2018-05-04T03:17:19.450Z,17.35
2018-05-04T03:17:51.481Z,17.3
2018-05-04T03:18:23.495Z,17.28
2018-05-04T03:18:55.598Z,17.28
2018-05-04T03:19:27.616Z,17.31
2018-05-04T03:19:59.628Z,17.3
2018-05-04T03:20:31.653Z,17.24
2018-05-04T03:21:03.696Z,17.32
2018-05-04T03:21:35.732Z,17.24
2018-05-04T03:22:08.241Z,17.28
2018-05-04T03:22:40.237Z,17.24
2018-05-04T03:23:12.246Z,17.32
2018-05-04T03:23:44.249Z,17.31
2018-05-04T03:24:16.378Z,17.21
2018-05-04T03:24:48.374Z,17.2
2018-05-04T03:25:20.371Z,17.27
2018-05-04T03:25:52.338Z,17.3
2018-05-04T03:26:24.370Z,17.25
2018-05-04T03:26:56.383Z,17.25
2018-05-04T03:27:28.424Z,17.25
2018-05-04T03:28:00.460Z,17.25
2018-05-04T03:28:32.511Z,17.25
2018-05-04T03:29:04.525Z,17.21
2018-05-04T03:29:36.550Z,17.22
2018-05-04T03:30:08.514Z,17.22
2018-05-04T03:30:40.595Z,17.28
2018-05-04T03:31:12.622Z,17.24
2018-05-04T03:31:44.613Z,17.22
2018-05-04T03:32:16.616Z,17.2
2018-05-04T03:32:48.659Z,17.22
2018-05-04T03:33:20.671Z,17.22
2018-05-04T03:33:52.709Z,17.22
2018-05-04T03:34:24.741Z,17.17
2018-05-04T03:34:56.763Z,17.18
2018-05-04T03:35:28.813Z,17.22
2018-05-04T03:36:00.893Z,17.24
2018-05-04T03:36:32.921Z,17.2
2018-05-04T03:37:04.995Z,17.21
2018-05-04T03:37:36.995Z,17.21
2018-05-04T03:38:09.010Z,17.24
2018-05-04T03:38:41.065Z,17.2
2018-05-04T03:39:13.104Z,17.1
2018-05-04T03:39:45.141Z,17.21
2018-05-04T03:40:17.176Z,17.13
2018-05-04T03:40:49.237Z,17.25
2018-05-04T03:41:21.247Z,17.13
2018-05-04T03:41:53.296Z,17.17
2018-05-04T03:42:25.382Z,17.15
2018-05-04T03:42:57.572Z,17.15
2018-05-04T03:43:29.630Z,17.1
2018-05-04T03:44:01.686Z,17.18
2018-05-04T03:44:33.795Z,17.06
2018-05-04T03:45:05.897Z,17.12
2018-05-04T03:45:37.937Z,17.12
2018-05-04T03:46:09.956Z,17.09
2018-05-04T03:46:42.033Z,17.18
2018-05-04T03:47:14.089Z,17.18
2018-05-04T03:47:46.129Z,17.12
2018-05-04T03:48:18.159Z,17.12
2018-05-04T03:48:50.207Z,17.12
2018-05-04T03:49:22.243Z,17.18
2018-05-04T03:49:54.258Z,17.09
2018-05-04T03:50:26.295Z,17.15
2018-05-04T03:50:58.319Z,17.12
2018-05-04T03:51:30.439Z,17
2018-05-04T03:52:02.549Z,17.17
2018-05-04T03:52:34.639Z,17.07
2018-05-04T03:53:06.678Z,17.09
2018-05-04T03:53:38.696Z,17.05
2018-05-04T03:54:10.715Z,17.17
2018-05-04T03:54:42.726Z,17.1
2018-05-04T03:55:14.786Z,17.09
2018-05-04T03:55:46.755Z,17.05
2018-05-04T03:56:18.785Z,17.1
2018-05-04T03:56:50.826Z,17.06
2018-05-04T03:57:22.843Z,17.09
2018-05-04T03:57:54.840Z,17.07
2018-05-04T03:58:26.881Z,17.12
2018-05-04T03:58:58.900Z,17.03
2018-05-04T03:59:30.984Z,17.09
2018-05-04T04:00:03.015Z,17.06
2018-05-04T04:00:35.032Z,17.03
2018-05-04T04:01:07.025Z,17
2018-05-04T04:01:39.069Z,17.02
2018-05-04T04:02:11.126Z,17.03
2018-05-04T04:02:43.144Z,17
2018-05-04T04:03:15.212Z,17.03
2018-05-04T04:03:47.352Z,17.1
2018-05-04T04:04:19.350Z,17.09
2018-05-04T04:04:51.337Z,17.07
2018-05-04T04:05:23.391Z,17.09
2018-05-04T04:05:55.435Z,17.07
2018-05-04T04:06:27.471Z,17.05
2018-05-04T04:06:59.493Z,17.09
2018-05-04T04:07:31.504Z,17.06
2018-05-04T04:08:03.554Z,17.09
2018-05-04T04:08:35.672Z,17.09
2018-05-04T04:09:07.692Z,17.03
2018-05-04T04:09:39.713Z,17.05
2018-05-04T04:10:11.746Z,17.06
2018-05-04T04:10:43.778Z,17.05
2018-05-04T04:11:15.818Z,17.02
2018-05-04T04:11:48.652Z,17
2018-05-04T04:12:20.657Z,17.06
2018-05-04T04:12:52.656Z,17.07
2018-05-04T04:13:24.684Z,17
2018-05-04T04:13:56.717Z,17.07
2018-05-04T04:14:28.772Z,17.03
2018-05-04T04:15:00.799Z,16.99
2018-05-04T04:15:32.846Z,16.94
2018-05-04T04:16:05.526Z,17.07
2018-05-04T04:16:37.567Z,17.05
2018-05-04T04:17:09.662Z,16.97
2018-05-04T04:17:41.674Z,17.05
2018-05-04T04:18:13.694Z,17.07
2018-05-04T04:18:45.809Z,17.07
2018-05-04T04:19:17.825Z,17
2018-05-04T04:19:49.870Z,17.06
2018-05-04T04:20:21.930Z,17.06
2018-05-04T04:20:54.031Z,17.07
2018-05-04T04:21:26.128Z,17.06
2018-05-04T04:21:58.142Z,16.99
2018-05-04T04:22:30.161Z,16.99
2018-05-04T04:23:02.205Z,16.97
2018-05-04T04:23:34.293Z,17.05
2018-05-04T04:24:06.291Z,16.95
2018-05-04T04:24:38.306Z,17.03
2018-05-04T04:25:10.354Z,17.06
2018-05-04T04:25:42.528Z,16.94
2018-05-04T04:26:14.623Z,17.02
2018-05-04T04:26:46.672Z,17
2018-05-04T04:27:18.721Z,17.05
2018-05-04T04:27:50.714Z,17.05
2018-05-04T04:28:22.732Z,17.05
2018-05-04T04:28:54.763Z,16.94
2018-05-04T04:29:26.913Z,17.03
2018-05-04T04:29:59.032Z,17.06
2018-05-04T04:30:31.081Z,17
2018-05-04T04:31:03.114Z,17.03
2018-05-04T04:31:35.168Z,17.06
2018-05-04T04:32:07.184Z,17.02
2018-05-04T04:32:39.197Z,17.06
2018-05-04T04:33:11.246Z,17.06
2018-05-04T04:33:43.266Z,17
2018-05-04T04:34:15.323Z,17.03
2018-05-04T04:34:47.387Z,17.03
2018-05-04T04:35:19.491Z,17.06
2018-05-04T04:35:51.511Z,17.05
2018-05-04T04:36:23.539Z,17.03
2018-05-04T04:36:55.699Z,17.05
2018-05-04T04:37:27.826Z,16.95
2018-05-04T04:37:59.862Z,17.06
2018-05-04T04:38:31.876Z,17.06
2018-05-04T04:39:03.959Z,17.03
2018-05-04T04:39:36.017Z,17.03
2018-05-04T04:40:08.072Z,17.05
2018-05-04T04:40:40.056Z,16.94
2018-05-04T04:41:12.101Z,17.06
2018-05-04T04:41:44.110Z,17.03
2018-05-04T04:42:16.139Z,17.05
2018-05-04T04:42:48.191Z,17.05
2018-05-04T04:43:20.177Z,17.06
2018-05-04T04:43:52.213Z,17.13
2018-05-04T04:44:24.285Z,16.94
2018-05-04T04:44:56.317Z,17.06
2018-05-04T04:45:29.143Z,17.06
2018-05-04T04:46:01.252Z,16.99
2018-05-04T04:46:33.279Z,16.97
2018-05-04T04:47:05.304Z,17
2018-05-04T04:47:37.326Z,17.03
2018-05-04T04:48:09.351Z,17.03
2018-05-04T04:48:41.388Z,16.99
2018-05-04T04:49:13.425Z,16.99
2018-05-04T04:49:45.440Z,17.05
2018-05-04T04:50:17.446Z,17.03
2018-05-04T04:50:49.452Z,17.03
2018-05-04T04:51:21.466Z,17.1
2018-05-04T04:51:53.561Z,17.05
2018-05-04T04:52:25.631Z,17.07
2018-05-04T04:52:57.688Z,17.03
2018-05-04T04:53:29.698Z,17.03
2018-05-04T04:54:01.707Z,17.03
2018-05-04T04:54:33.762Z,17.05
2018-05-04T04:55:05.804Z,16.99
2018-05-04T04:55:37.826Z,17.05
2018-05-04T04:56:09.836Z,17.07
2018-05-04T04:56:41.859Z,17.06
2018-05-04T04:57:13.858Z,17
2018-05-04T04:57:46.019Z,17.03
2018-05-04T04:58:18.054Z,17.06
2018-05-04T04:58:50.076Z,17.03
2018-05-04T04:59:22.119Z,17.03
2018-05-04T04:59:54.165Z,17.06
2018-05-04T05:00:26.249Z,17.03
2018-05-04T05:00:58.213Z,17.13
2018-05-04T05:01:30.325Z,17
2018-05-04T05:02:02.420Z,17.15
2018-05-04T05:02:34.496Z,17.17
2018-05-04T05:03:06.517Z,17.09
2018-05-04T05:03:38.547Z,17.18
2018-05-04T05:04:11.423Z,17.03
2018-05-04T05:04:43.465Z,17.09
2018-05-04T05:05:15.485Z,17.13
2018-05-04T05:05:47.505Z,17.13
2018-05-04T05:06:19.606Z,17.09
2018-05-04T05:06:51.696Z,17.13
2018-05-04T05:07:23.709Z,17.15
2018-05-04T05:07:55.709Z,17.15
2018-05-04T05:08:27.713Z,17.12
2018-05-04T05:08:59.691Z,17.13
2018-05-04T05:09:31.740Z,17.13
2018-05-04T05:10:03.799Z,17.13
2018-05-04T05:10:35.812Z,17.2
2018-05-04T05:11:07.823Z,17.17
2018-05-04T05:11:39.891Z,17.13
2018-05-04T05:12:11.951Z,17.15
2018-05-04T05:12:43.988Z,17.24
2018-05-04T05:13:16.008Z,17.25
2018-05-04T05:13:48.024Z,17.17
2018-05-04T05:14:20.037Z,17.2
2018-05-04T05:14:52.072Z,17.27
2018-05-04T05:15:24.236Z,17.21
2018-05-04T05:15:56.280Z,17.25
2018-05-04T05:16:28.300Z,17.24
2018-05-04T05:17:00.367Z,17.21
2018-05-04T05:17:32.399Z,17.27
2018-05-04T05:18:04.418Z,17.25
2018-05-04T05:18:36.480Z,17.24
2018-05-04T05:19:08.475Z,17.24
2018-05-04T05:19:40.561Z,17.28
2018-05-04T05:20:12.544Z,17.32
2018-05-04T05:20:44.576Z,17.3
2018-05-04T05:21:16.688Z,17.36
2018-05-04T05:21:48.944Z,17.25
2018-05-04T05:22:21.078Z,17.32
2018-05-04T05:22:53.130Z,17.32
2018-05-04T05:23:25.170Z,17.36
2018-05-04T05:23:57.182Z,17.3
2018-05-04T05:24:29.221Z,17.28
2018-05-04T05:25:01.247Z,17.4
2018-05-04T05:25:33.271Z,17.4
2018-05-04T05:26:05.441Z,17.39
2018-05-04T05:26:37.434Z,17.45
2018-05-04T05:27:09.516Z,17.42
2018-05-04T05:27:41.515Z,17.46
2018-05-04T05:28:13.577Z,17.4
2018-05-04T05:28:45.621Z,17.47
2018-05-04T05:29:17.671Z,17.46
2018-05-04T05:29:49.712Z,17.46
2018-05-04T05:30:21.722Z,17.49
2018-05-04T05:30:53.768Z,17.52
2018-05-04T05:31:26.602Z,17.54
2018-05-04T05:31:58.847Z,17.54
2018-05-04T05:32:33.176Z,17.58
2018-05-04T05:33:05.136Z,17.57
2018-05-04T05:33:37.173Z,17.54
2018-05-04T05:34:09.276Z,17.47
2018-05-04T05:34:41.303Z,17.58
2018-05-04T05:35:13.331Z,17.63
2018-05-04T05:35:45.365Z,17.54
2018-05-04T05:36:17.397Z,17.58
2018-05-04T05:36:49.427Z,17.55
2018-05-04T05:37:21.476Z,17.73
2018-05-04T05:37:53.750Z,17.6
2018-05-04T05:38:26.593Z,17.63
2018-05-04T05:38:58.940Z,17.57
2018-05-04T05:39:31.166Z,17.73
2018-05-04T05:40:03.535Z,17.71
2018-05-04T05:40:35.592Z,17.71
2018-05-04T05:41:07.822Z,17.71
2018-05-04T05:41:39.861Z,17.77
2018-05-04T05:42:12.037Z,17.74
2018-05-04T05:42:44.567Z,17.74
2018-05-04T05:43:16.623Z,17.71
2018-05-04T05:43:48.607Z,17.79
2018-05-04T05:44:20.655Z,17.71
2018-05-04T05:44:52.709Z,17.86
2018-05-04T05:45:24.730Z,17.76
2018-05-04T05:45:56.725Z,17.81
2018-05-04T05:46:28.774Z,17.83
2018-05-04T05:47:00.770Z,17.87
2018-05-04T05:47:32.792Z,17.86
2018-05-04T05:48:04.879Z,17.88
2018-05-04T05:48:36.850Z,17.94
2018-05-04T05:49:08.926Z,17.9
2018-05-04T05:49:40.987Z,17.98
2018-05-04T05:50:13.120Z,17.94
2018-05-04T05:50:45.182Z,17.95
2018-05-04T05:51:17.605Z,17.92
2018-05-04T05:51:49.701Z,17.98
2018-05-04T05:52:21.829Z,18.01
2018-05-04T05:52:53.879Z,17.99
2018-05-04T05:53:25.939Z,18.03
2018-05-04T05:53:58.001Z,18.03
2018-05-04T05:54:30.058Z,18.02
2018-05-04T05:55:02.117Z,18.11
2018-05-04T05:55:34.186Z,18.06
2018-05-04T05:56:06.257Z,18.02
2018-05-04T05:56:38.237Z,18.11
2018-05-04T05:57:10.287Z,18.21
2018-05-04T05:57:42.382Z,18.16
2018-05-04T05:58:14.381Z,18.24
2018-05-04T05:58:46.401Z,18.24
2018-05-04T05:59:18.451Z,18.14
2018-05-04T05:59:50.441Z,18.16
2018-05-04T06:00:22.484Z,18.17
2018-05-04T06:00:54.548Z,18.31
2018-05-04T06:01:26.678Z,18.36
2018-05-04T06:01:59.590Z,18.26
2018-05-04T06:02:31.590Z,18.32
2018-05-04T06:03:03.623Z,18.38
2018-05-04T06:03:35.645Z,18.36
2018-05-04T06:04:07.863Z,18.31
2018-05-04T06:04:39.956Z,18.24
2018-05-04T06:05:11.930Z,18.31
2018-05-04T06:05:43.980Z,18.39
2018-05-04T06:06:16.010Z,18.34
2018-05-04T06:06:48.441Z,18.47
2018-05-04T06:07:22.599Z,18.42
2018-05-04T06:07:58.513Z,18.47
2018-05-04T06:08:35.291Z,18.49
2018-05-04T06:09:09.032Z,18.49
2018-05-04T06:09:44.037Z,18.53
2018-05-04T06:10:20.647Z,18.54
2018-05-04T06:10:56.175Z,18.54
2018-05-04T06:11:28.241Z,18.6
2018-05-04T06:12:00.274Z,18.57
2018-05-04T06:12:32.368Z,18.63
2018-05-04T06:13:04.411Z,18.61
2018-05-04T06:13:36.400Z,18.66
2018-05-04T06:14:08.450Z,18.74
2018-05-04T06:14:40.484Z,18.66
2018-05-04T06:15:12.524Z,18.63
2018-05-04T06:15:44.485Z,18.69
2018-05-04T06:16:16.524Z,18.74
2018-05-04T06:16:48.560Z,18.82
2018-05-04T06:17:20.619Z,18.82
2018-05-04T06:17:52.749Z,18.78
2018-05-04T06:18:24.827Z,18.81
2018-05-04T06:18:56.844Z,18.78
2018-05-04T06:19:28.871Z,18.84
2018-05-04T06:20:00.890Z,18.82
2018-05-04T06:20:33.005Z,18.94
2018-05-04T06:21:05.014Z,18.94
2018-05-04T06:21:37.073Z,18.96
2018-05-04T06:22:09.211Z,19.02
2018-05-04T06:22:41.172Z,19
2018-05-04T06:23:13.228Z,19.06
2018-05-04T06:23:45.272Z,18.97
2018-05-04T06:24:17.313Z,19.05
2018-05-04T06:24:49.367Z,19.07
2018-05-04T06:25:21.462Z,19.13
2018-05-04T06:25:53.497Z,19.16
2018-05-04T06:26:25.483Z,19.13
2018-05-04T06:26:57.486Z,19.12
2018-05-04T06:27:29.627Z,19.2
2018-05-04T06:28:01.658Z,19.12
2018-05-04T06:28:33.724Z,19.23
2018-05-04T06:29:05.823Z,19.31
2018-05-04T06:29:37.827Z,19.35
2018-05-04T06:30:09.865Z,19.27
2018-05-04T06:30:41.894Z,19.3
2018-05-04T06:31:13.971Z,19.32
2018-05-04T06:31:45.993Z,19.37
2018-05-04T06:32:18.056Z,19.34
2018-05-04T06:32:50.091Z,19.42
2018-05-04T06:33:22.201Z,19.43
2018-05-04T06:33:54.313Z,19.45
2018-05-04T06:34:26.479Z,19.46
2018-05-04T06:34:58.518Z,19.52
2018-05-04T06:35:31.392Z,19.47
2018-05-04T06:36:03.397Z,19.45
2018-05-04T06:36:36.330Z,19.5
2018-05-04T06:37:08.364Z,19.5
2018-05-04T06:37:40.416Z,19.56
2018-05-04T06:38:12.475Z,19.57
2018-05-04T06:38:44.483Z,19.61
2018-05-04T06:39:16.641Z,19.63
2018-05-04T06:39:48.712Z,19.61
2018-05-04T06:40:20.752Z,19.65
2018-05-04T06:40:52.813Z,19.67
2018-05-04T06:41:24.952Z,19.71
2018-05-04T06:41:57.048Z,19.74
2018-05-04T06:42:29.040Z,19.71
2018-05-04T06:43:01.087Z,19.78
2018-05-04T06:43:33.118Z,19.82
2018-05-04T06:44:05.183Z,19.75
2018-05-04T06:44:37.213Z,19.82
2018-05-04T06:45:09.242Z,19.79
2018-05-04T06:45:41.280Z,19.85
2018-05-04T06:46:13.413Z,19.86
2018-05-04T06:46:45.453Z,19.93
2018-05-04T06:47:17.489Z,19.9
2018-05-04T06:47:49.529Z,19.92
2018-05-04T06:48:21.534Z,19.93
2018-05-04T06:48:53.642Z,20.01
2018-05-04T06:49:25.685Z,19.93
2018-05-04T06:49:57.737Z,20.08
2018-05-04T06:50:29.764Z,20.07
2018-05-04T06:51:01.776Z,20.07
2018-05-04T06:51:33.831Z,20.1
2018-05-04T06:52:05.857Z,20.11
2018-05-04T06:52:37.847Z,20.05
2018-05-04T06:53:09.956Z,20.18
2018-05-04T06:53:42.014Z,20.12
2018-05-04T06:54:14.064Z,20.18
2018-05-04T06:54:46.223Z,20.19